createdAt,value
2022-12-25T00:04:50.403Z,28.75
2022-12-25T00:09:53.931Z,31.63
2022-12-25T00:14:57.466Z,31.27
2022-12-25T00:20:02.372Z,30.85
2022-12-25T00:25:06.534Z,34.30
2022-12-25T00:30:11.164Z,32.53
2022-12-25T00:35:16.124Z,31.70
2022-12-25T00:40:19.842Z,29.42
2022-12-25T00:45:23.642Z,29.88
2022-12-25T00:50:28.556Z,31.17
2022-12-25T00:55:32.338Z,30.55
2022-12-25T01:00:35.964Z,31.48
2022-12-25T01:05:40.989Z,27.00
2022-12-25T01:10:44.510Z,25.40
2022-12-25T01:15:48.111Z,27.02
2022-12-25T01:20:53.278Z,28.02
2022-12-25T01:25:56.852Z,27.60
2022-12-25T01:31:00.445Z,29.90
2022-12-25T01:36:06.298Z,29.02
2022-12-25T01:41:09.875Z,28.35
2022-12-25T01:46:13.449Z,29.20
2022-12-25T01:51:25.056Z,26.67
2022-12-25T01:56:30.362Z,31.33
2022-12-25T02:01:34.061Z,32.63
2022-12-25T02:06:39.212Z,33.78
2022-12-25T02:11:57.994Z,32.28
2022-12-25T02:17:08.680Z,29.23
2022-12-25T02:22:22.479Z,28.60
2022-12-25T02:27:47.759Z,28.95
2022-12-25T02:33:19.697Z,29.95
2022-12-25T02:38:28.721Z,27.77
2022-12-25T02:43:55.290Z,26.45
2022-12-25T02:49:19.887Z,28.25
2022-12-25T02:54:45.921Z,28.25
2022-12-25T03:00:10.940Z,29.35
2022-12-25T03:05:35.566Z,29.40
2022-12-25T03:11:14.609Z,30.30
2022-12-25T03:16:38.625Z,31.17
2022-12-25T03:21:59.613Z,32.13
2022-12-25T03:27:04.109Z,30.67
2022-12-25T03:32:19.886Z,30.17
2022-12-25T03:38:02.786Z,31.88
2022-12-25T03:43:45.673Z,32.30
2022-12-25T03:49:14.954Z,31.58
2022-12-25T03:54:42.101Z,29.90
2022-12-25T04:00:03.386Z,26.90
2022-12-25T04:05:31.421Z,29.83
2022-12-25T04:16:39.460Z,27.45
2022-12-25T04:22:13.235Z,25.95
2022-12-25T04:27:34.336Z,26.63
2022-12-25T04:32:55.166Z,25.50
2022-12-25T04:38:00.174Z,24.65
2022-12-25T04:43:03.738Z,25.00
2022-12-25T04:48:07.602Z,23.92
2022-12-25T04:53:12.548Z,22.05
2022-12-25T04:58:16.250Z,24.02
2022-12-25T05:03:19.927Z,24.25
2022-12-25T05:08:24.927Z,23.33
2022-12-25T05:13:28.503Z,23.27
2022-12-25T05:18:32.046Z,25.10
2022-12-25T05:23:36.971Z,23.20
2022-12-25T05:28:40.569Z,25.85
2022-12-25T05:33:44.132Z,25.90
2022-12-25T05:38:49.054Z,31.10
2022-12-25T05:43:53.776Z,25.02
2022-12-25T05:48:57.302Z,31.40
2022-12-25T05:54:02.376Z,37.13
2022-12-25T05:59:06.030Z,34.25
2022-12-25T06:04:12.662Z,29.75
2022-12-25T06:09:18.033Z,32.40
2022-12-25T06:14:21.555Z,31.75
2022-12-25T06:19:25.202Z,32.97
2022-12-25T06:24:30.260Z,32.38
2022-12-25T06:29:33.877Z,33.22
2022-12-25T06:34:37.639Z,31.75
2022-12-25T06:39:42.827Z,30.05
2022-12-25T06:44:59.504Z,28.92
2022-12-25T06:50:03.581Z,29.55
2022-12-25T06:55:09.424Z,31.55
2022-12-25T07:00:13.824Z,28.45
2022-12-25T07:05:17.717Z,30.48
2022-12-25T07:10:22.658Z,28.85
2022-12-25T07:15:26.240Z,32.38
2022-12-25T07:20:30.999Z,30.73
2022-12-25T07:25:37.638Z,30.17
2022-12-25T07:30:41.356Z,31.65
2022-12-25T07:35:45.347Z,30.73
2022-12-25T07:40:51.127Z,32.75
2022-12-25T07:45:58.791Z,32.17
2022-12-25T07:51:05.113Z,29.30
2022-12-25T07:56:13.580Z,27.48
2022-12-25T08:01:20.223Z,27.83
2022-12-25T08:06:26.954Z,37.10
2022-12-25T08:11:32.084Z,34.10
2022-12-25T08:16:36.331Z,28.70
2022-12-25T08:21:40.062Z,25.63
2022-12-25T08:26:45.042Z,29.52
2022-12-25T08:31:48.629Z,32.28
2022-12-25T08:36:52.137Z,31.90
2022-12-25T08:41:57.089Z,24.35
2022-12-25T08:47:00.673Z,20.27
2022-12-25T08:52:04.396Z,24.10
2022-12-25T08:57:09.445Z,27.58
2022-12-25T09:02:13.912Z,24.65
2022-12-25T09:07:17.781Z,24.80
2022-12-25T09:12:22.934Z,28.00
2022-12-25T09:17:26.645Z,25.65
2022-12-25T09:22:30.405Z,21.48
2022-12-25T09:27:35.467Z,22.70
2022-12-25T09:32:40.469Z,22.45
2022-12-25T09:37:44.090Z,21.20
2022-12-25T09:42:50.569Z,22.02
2022-12-25T09:47:57.535Z,22.48
2022-12-25T09:53:07.422Z,23.40
2022-12-25T09:58:13.910Z,26.27
2022-12-25T10:03:30.071Z,23.90
2022-12-25T10:08:49.566Z,19.08
2022-12-25T10:14:10.594Z,18.23
2022-12-25T10:19:41.997Z,19.95
2022-12-25T10:24:49.282Z,19.85
2022-12-25T10:29:55.519Z,29.52
2022-12-25T10:34:59.093Z,26.45
2022-12-25T10:40:02.905Z,12.10
2022-12-25T10:45:10.384Z,20.45
2022-12-25T10:50:21.102Z,13.57
2022-12-25T10:55:28.667Z,16.02
2022-12-25T11:00:35.116Z,25.60
2022-12-25T11:05:38.899Z,27.05
2022-12-25T11:10:44.107Z,23.80
2022-12-25T11:15:50.448Z,13.38
2022-12-25T11:20:56.259Z,9.27
2022-12-25T11:26:02.614Z,8.43
2022-12-25T11:31:10.459Z,14.82
2022-12-25T11:36:21.340Z,17.58
2022-12-25T11:41:34.989Z,14.50
2022-12-25T11:46:47.083Z,20.27
2022-12-25T11:51:54.861Z,13.98
2022-12-25T11:57:01.806Z,8.23
2022-12-25T12:02:23.971Z,14.95
2022-12-25T12:07:31.075Z,24.33
2022-12-25T12:12:46.645Z,11.00
2022-12-25T12:17:53.681Z,10.50
2022-12-25T12:22:57.991Z,10.70
2022-12-25T12:28:05.724Z,11.85
2022-12-25T12:33:21.748Z,9.50
2022-12-25T12:38:27.191Z,13.18
2022-12-25T12:43:35.847Z,17.67
2022-12-25T12:48:43.925Z,17.98
2022-12-25T12:53:47.550Z,12.85
2022-12-25T12:58:52.058Z,8.68
2022-12-25T13:04:17.732Z,9.23
2022-12-25T13:09:32.372Z,7.85
2022-12-25T13:14:38.015Z,8.60
2022-12-25T13:19:44.589Z,10.35
2022-12-25T13:24:57.096Z,7.40
2022-12-25T13:30:01.016Z,9.23
2022-12-25T13:35:12.859Z,8.23
2022-12-25T13:40:24.349Z,12.65
2022-12-25T13:45:30.242Z,8.70
2022-12-25T13:50:36.034Z,8.77
2022-12-25T13:55:39.732Z,13.40
2022-12-25T14:00:50.981Z,15.77
2022-12-25T14:06:00.500Z,22.83
2022-12-25T14:11:07.166Z,16.15
2022-12-25T14:16:11.945Z,16.02
2022-12-25T14:21:23.286Z,17.33
2022-12-25T14:26:29.667Z,16.75
2022-12-25T14:31:34.829Z,16.63
2022-12-25T14:36:40.529Z,13.80
2022-12-25T14:41:54.134Z,14.15
2022-12-25T14:47:06.020Z,12.30
2022-12-25T14:52:18.703Z,15.35
2022-12-25T14:57:28.282Z,15.27
2022-12-25T15:07:45.137Z,20.33
2022-12-25T15:12:48.661Z,21.85
2022-12-25T15:17:53.254Z,22.25
2022-12-25T15:23:18.845Z,22.75
2022-12-25T15:28:22.840Z,20.98
2022-12-25T15:33:26.415Z,19.90
2022-12-25T15:38:36.577Z,22.20
2022-12-25T15:43:41.283Z,24.23
2022-12-25T15:48:45.313Z,50.15
2022-12-25T15:53:50.491Z,43.10
2022-12-25T15:58:54.300Z,33.13
2022-12-25T16:03:58.456Z,19.63
2022-12-25T16:09:03.788Z,27.67
2022-12-25T16:14:07.897Z,39.53
2022-12-25T16:19:11.874Z,35.92
2022-12-25T16:24:18.071Z,32.17
2022-12-25T16:29:21.975Z,25.77
2022-12-25T16:34:26.052Z,21.77
2022-12-25T16:39:30.972Z,26.33
2022-12-25T16:44:37.416Z,24.55
2022-12-25T16:49:40.974Z,30.65
2022-12-25T16:54:47.925Z,29.17
2022-12-25T16:59:51.593Z,29.45
2022-12-25T17:04:55.314Z,22.63
2022-12-25T17:10:00.255Z,24.35
2022-12-25T17:15:03.859Z,22.50
2022-12-25T17:20:08.825Z,25.75
2022-12-25T17:25:13.844Z,27.00
2022-12-25T17:30:18.076Z,29.80
2022-12-25T17:35:23.500Z,37.30
2022-12-25T17:40:29.853Z,44.53
2022-12-25T17:45:33.441Z,36.85
2022-12-25T17:50:41.315Z,39.72
2022-12-25T17:55:46.643Z,41.08
2022-12-25T18:00:50.249Z,36.85
2022-12-25T18:05:53.830Z,39.65
2022-12-25T18:11:04.553Z,38.38
2022-12-25T18:16:08.860Z,36.10
2022-12-25T18:21:12.719Z,36.42
2022-12-25T18:26:17.952Z,37.85
2022-12-25T18:31:24.119Z,42.17
2022-12-25T18:36:29.422Z,39.67
2022-12-25T18:41:54.517Z,34.72
2022-12-25T18:46:58.109Z,43.25
2022-12-25T18:52:50.372Z,52.25
2022-12-25T18:57:26.751Z,43.35
2022-12-25T19:02:30.758Z,32.75
2022-12-25T19:07:34.835Z,30.50
2022-12-25T19:12:39.751Z,67.07
2022-12-25T19:17:43.333Z,38.08
2022-12-25T19:22:47.216Z,34.10
2022-12-25T19:27:52.219Z,28.85
2022-12-25T19:32:55.847Z,29.92
2022-12-25T19:37:59.455Z,27.52
2022-12-25T19:43:04.506Z,28.55
2022-12-25T19:48:08.099Z,26.60
2022-12-25T19:53:11.825Z,28.88
2022-12-25T19:58:17.982Z,32.72
2022-12-25T20:03:21.622Z,36.33
2022-12-25T20:08:25.642Z,31.55
2022-12-25T20:13:30.619Z,29.67
2022-12-25T20:18:34.151Z,27.75
2022-12-25T20:23:37.910Z,31.40
2022-12-25T20:28:44.192Z,28.58
2022-12-25T20:33:48.050Z,32.67
2022-12-25T20:38:51.794Z,33.75
2022-12-25T20:43:57.117Z,38.25
2022-12-25T20:49:02.647Z,41.97
2022-12-25T20:54:08.579Z,51.10
2022-12-25T20:59:13.721Z,49.67
2022-12-25T21:04:17.560Z,43.35
2022-12-25T21:09:21.438Z,35.40
2022-12-25T21:14:26.391Z,52.00
2022-12-25T21:19:29.999Z,37.15
2022-12-25T21:24:33.715Z,36.00
2022-12-25T21:29:38.943Z,37.53
2022-12-25T21:34:42.565Z,34.90
2022-12-25T21:39:46.774Z,46.42
2022-12-25T21:44:51.965Z,34.50
2022-12-25T21:50:12.753Z,35.42
2022-12-25T21:55:16.592Z,33.60
2022-12-25T22:00:21.872Z,33.15
2022-12-25T22:05:43.124Z,32.42
2022-12-25T22:10:46.661Z,30.10
2022-12-25T22:16:09.886Z,41.47
2022-12-25T22:21:19.569Z,30.27
2022-12-25T22:26:23.251Z,35.03
2022-12-25T22:31:28.420Z,31.60
2022-12-25T22:36:32.111Z,43.85
2022-12-25T22:41:35.838Z,42.60
2022-12-25T22:46:40.843Z,28.38
2022-12-25T22:51:44.746Z,28.23
2022-12-25T22:56:51.347Z,67.60
2022-12-25T23:01:56.651Z,33.25
2022-12-25T23:07:00.277Z,30.23
2022-12-25T23:12:03.835Z,33.60
2022-12-25T23:17:29.870Z,31.95
2022-12-25T23:22:58.409Z,61.72
2022-12-25T23:28:02.001Z,44.85
2022-12-25T23:33:06.971Z,29.27
2022-12-25T23:38:10.557Z,25.95
2022-12-25T23:43:14.123Z,24.80
2022-12-25T23:48:19.107Z,25.13
2022-12-25T23:53:22.665Z,26.58
2022-12-25T23:58:26.255Z,26.70
